sensor_id;sensor_type;location;lat;lon;timestamp;temperature;humidity
55064;DHT22;40963;52.168;21.296;2022-08-23T00:01:15;18.30;99.90
55064;DHT22;40963;52.168;21.296;2022-08-23T00:03:41;18.20;99.90
55064;DHT22;40963;52.168;21.296;2022-08-23T00:06:09;18.30;99.90
55064;DHT22;40963;52.168;21.296;2022-08-23T00:08:36;18.30;99.90
55064;DHT22;40963;52.168;21.296;2022-08-23T00:11:03;18.30;99.90
55064;DHT22;40963;52.168;21.296;2022-08-23T00:13:29;18.20;99.90
55064;DHT22;40963;52.168;21.296;2022-08-23T00:15:57;18.20;99.90
55064;DHT22;40963;52.168;21.296;2022-08-23T00:18:23;18.20;99.90
55064;DHT22;40963;52.168;21.296;2022-08-23T00:20:49;18.20;99.90
55064;DHT22;40963;52.168;21.296;2022-08-23T00:23:15;18.20;99.90
55064;DHT22;40963;52.168;21.296;2022-08-23T00:25:42;18.30;99.90
55064;DHT22;40963;52.168;21.296;2022-08-23T00:28:08;18.30;99.90
55064;DHT22;40963;52.168;21.296;2022-08-23T00:30:34;18.30;99.90
55064;DHT22;40963;52.168;21.296;2022-08-23T00:33:00;18.30;99.90
55064;DHT22;40963;52.168;21.296;2022-08-23T00:35:26;18.40;99.90
55064;DHT22;40963;52.168;21.296;2022-08-23T00:37:52;18.30;99.90
55064;DHT22;40963;52.168;21.296;2022-08-23T00:40:18;18.40;99.90
55064;DHT22;40963;52.168;21.296;2022-08-23T00:42:59;18.40;99.90
55064;DHT22;40963;52.168;21.296;2022-08-23T00:48:40;18.40;99.90
55064;DHT22;40963;52.168;21.296;2022-08-23T00:53:49;18.40;99.90
55064;DHT22;40963;52.168;21.296;2022-08-23T00:56:19;18.50;99.90
55064;DHT22;40963;52.168;21.296;2022-08-23T00:58:45;18.50;99.90
55064;DHT22;40963;52.168;21.296;2022-08-23T01:01:12;18.50;99.90
55064;DHT22;40963;52.168;21.296;2022-08-23T01:03:42;18.50;99.90
55064;DHT22;40963;52.168;21.296;2022-08-23T01:09:07;18.50;99.90
55064;DHT22;40963;52.168;21.296;2022-08-23T01:11:40;18.60;99.90
55064;DHT22;40963;52.168;21.296;2022-08-23T01:14:18;18.60;99.90
55064;DHT22;40963;52.168;21.296;2022-08-23T01:19:33;18.70;99.90
55064;DHT22;40963;52.168;21.296;2022-08-23T01:22:21;18.70;99.90
55064;DHT22;40963;52.168;21.296;2022-08-23T01:24:50;18.70;99.90
55064;DHT22;40963;52.168;21.296;2022-08-23T01:27:16;18.70;99.90
55064;DHT22;40963;52.168;21.296;2022-08-23T01:29:42;18.70;99.90
55064;DHT22;40963;52.168;21.296;2022-08-23T01:32:08;18.70;99.90
55064;DHT22;40963;52.168;21.296;2022-08-23T01:34:34;18.80;99.90
55064;DHT22;40963;52.168;21.296;2022-08-23T01:37:04;18.80;99.90
55064;DHT22;40963;52.168;21.296;2022-08-23T01:39:30;18.80;99.90
55064;DHT22;40963;52.168;21.296;2022-08-23T01:41:56;18.80;99.90
55064;DHT22;40963;52.168;21.296;2022-08-23T01:44:22;18.80;99.90
55064;DHT22;40963;52.168;21.296;2022-08-23T01:46:48;18.80;99.90
55064;DHT22;40963;52.168;21.296;2022-08-23T01:49:14;18.90;99.90
55064;DHT22;40963;52.168;21.296;2022-08-23T01:51:41;18.80;99.90
55064;DHT22;40963;52.168;21.296;2022-08-23T01:54:06;18.90;99.90
55064;DHT22;40963;52.168;21.296;2022-08-23T01:56:33;18.80;99.90
55064;DHT22;40963;52.168;21.296;2022-08-23T01:58:59;18.80;99.90
55064;DHT22;40963;52.168;21.296;2022-08-23T02:01:25;18.80;99.90
55064;DHT22;40963;52.168;21.296;2022-08-23T02:03:50;18.80;99.90
55064;DHT22;40963;52.168;21.296;2022-08-23T02:06:16;18.80;99.90
55064;DHT22;40963;52.168;21.296;2022-08-23T02:08:43;18.80;99.90
55064;DHT22;40963;52.168;21.296;2022-08-23T02:11:36;18.80;99.90
55064;DHT22;40963;52.168;21.296;2022-08-23T02:14:05;18.90;99.90
55064;DHT22;40963;52.168;21.296;2022-08-23T02:16:35;18.80;99.90
55064;DHT22;40963;52.168;21.296;2022-08-23T02:19:05;18.90;99.90
55064;DHT22;40963;52.168;21.296;2022-08-23T02:21:32;18.80;99.90
55064;DHT22;40963;52.168;21.296;2022-08-23T02:23:59;18.80;99.90
55064;DHT22;40963;52.168;21.296;2022-08-23T02:26:27;18.80;99.90
55064;DHT22;40963;52.168;21.296;2022-08-23T02:28:53;18.80;99.90
55064;DHT22;40963;52.168;21.296;2022-08-23T02:31:20;18.80;99.90
55064;DHT22;40963;52.168;21.296;2022-08-23T02:33:45;18.80;99.90
55064;DHT22;40963;52.168;21.296;2022-08-23T02:36:13;18.80;99.90
55064;DHT22;40963;52.168;21.296;2022-08-23T02:38:39;18.80;99.90
55064;DHT22;40963;52.168;21.296;2022-08-23T02:41:05;18.80;99.90
55064;DHT22;40963;52.168;21.296;2022-08-23T02:43:31;18.80;99.90
55064;DHT22;40963;52.168;21.296;2022-08-23T02:45:58;18.80;99.90
55064;DHT22;40963;52.168;21.296;2022-08-23T02:48:24;18.80;99.90
55064;DHT22;40963;52.168;21.296;2022-08-23T02:50:50;18.80;99.90
55064;DHT22;40963;52.168;21.296;2022-08-23T02:53:16;18.80;99.90
55064;DHT22;40963;52.168;21.296;2022-08-23T02:55:46;18.80;99.90
55064;DHT22;40963;52.168;21.296;2022-08-23T02:58:12;18.80;99.90
55064;DHT22;40963;52.168;21.296;2022-08-23T03:00:38;18.80;99.90
55064;DHT22;40963;52.168;21.296;2022-08-23T03:03:04;18.90;99.90
55064;DHT22;40963;52.168;21.296;2022-08-23T03:05:30;18.80;99.90
55064;DHT22;40963;52.168;21.296;2022-08-23T03:07:56;18.80;99.90
55064;DHT22;40963;52.168;21.296;2022-08-23T03:10:22;18.90;99.90
55064;DHT22;40963;52.168;21.296;2022-08-23T03:12:48;18.90;99.90
55064;DHT22;40963;52.168;21.296;2022-08-23T03:15:14;18.80;99.90
55064;DHT22;40963;52.168;21.296;2022-08-23T03:17:40;18.80;99.90
55064;DHT22;40963;52.168;21.296;2022-08-23T03:20:06;18.80;99.90
55064;DHT22;40963;52.168;21.296;2022-08-23T03:22:32;18.80;99.90
55064;DHT22;40963;52.168;21.296;2022-08-23T03:24:58;18.80;99.90
55064;DHT22;40963;52.168;21.296;2022-08-23T03:27:24;18.80;99.90
55064;DHT22;40963;52.168;21.296;2022-08-23T03:29:50;18.80;99.90
55064;DHT22;40963;52.168;21.296;2022-08-23T03:32:16;18.80;99.90
55064;DHT22;40963;52.168;21.296;2022-08-23T03:34:42;18.80;99.90
55064;DHT22;40963;52.168;21.296;2022-08-23T03:37:08;18.70;99.90
55064;DHT22;40963;52.168;21.296;2022-08-23T03:39:36;18.70;99.90
55064;DHT22;40963;52.168;21.296;2022-08-23T03:42:02;18.70;99.90
55064;DHT22;40963;52.168;21.296;2022-08-23T03:44:28;18.70;99.90
55064;DHT22;40963;52.168;21.296;2022-08-23T03:46:53;18.70;99.90
55064;DHT22;40963;52.168;21.296;2022-08-23T03:49:19;18.70;99.90
55064;DHT22;40963;52.168;21.296;2022-08-23T03:51:45;18.70;99.90
55064;DHT22;40963;52.168;21.296;2022-08-23T03:54:11;18.70;99.90
55064;DHT22;40963;52.168;21.296;2022-08-23T03:56:44;18.60;99.90
55064;DHT22;40963;52.168;21.296;2022-08-23T03:59:14;18.60;99.90
55064;DHT22;40963;52.168;21.296;2022-08-23T04:01:40;18.60;99.90
55064;DHT22;40963;52.168;21.296;2022-08-23T04:04:06;18.60;99.90
55064;DHT22;40963;52.168;21.296;2022-08-23T04:06:32;18.50;99.90
55064;DHT22;40963;52.168;21.296;2022-08-23T04:08:58;18.60;99.90
55064;DHT22;40963;52.168;21.296;2022-08-23T04:11:24;18.50;99.90
55064;DHT22;40963;52.168;21.296;2022-08-23T04:13:50;18.50;99.90
55064;DHT22;40963;52.168;21.296;2022-08-23T04:16:16;18.60;99.90
55064;DHT22;40963;52.168;21.296;2022-08-23T04:18:44;18.50;99.90
55064;DHT22;40963;52.168;21.296;2022-08-23T04:21:15;18.50;99.90
55064;DHT22;40963;52.168;21.296;2022-08-23T04:23:41;18.60;99.90
55064;DHT22;40963;52.168;21.296;2022-08-23T04:26:10;18.60;99.90
55064;DHT22;40963;52.168;21.296;2022-08-23T04:28:36;18.60;99.90
55064;DHT22;40963;52.168;21.296;2022-08-23T04:31:03;18.60;99.90
55064;DHT22;40963;52.168;21.296;2022-08-23T04:33:31;18.60;99.90
55064;DHT22;40963;52.168;21.296;2022-08-23T04:35:58;18.60;99.90
55064;DHT22;40963;52.168;21.296;2022-08-23T04:38:25;18.60;99.90
55064;DHT22;40963;52.168;21.296;2022-08-23T04:40:51;18.70;99.90
55064;DHT22;40963;52.168;21.296;2022-08-23T04:43:36;18.70;99.90
55064;DHT22;40963;52.168;21.296;2022-08-23T04:46:01;18.70;99.90
55064;DHT22;40963;52.168;21.296;2022-08-23T04:48:27;18.70;99.90
55064;DHT22;40963;52.168;21.296;2022-08-23T04:50:53;18.70;99.90
55064;DHT22;40963;52.168;21.296;2022-08-23T04:53:19;18.70;99.90
55064;DHT22;40963;52.168;21.296;2022-08-23T04:55:45;18.70;99.90
55064;DHT22;40963;52.168;21.296;2022-08-23T04:58:11;18.70;99.90
55064;DHT22;40963;52.168;21.296;2022-08-23T05:00:37;18.80;99.90
55064;DHT22;40963;52.168;21.296;2022-08-23T05:03:03;18.80;99.90
55064;DHT22;40963;52.168;21.296;2022-08-23T05:05:29;18.80;99.90
55064;DHT22;40963;52.168;21.296;2022-08-23T05:07:54;18.90;99.90
55064;DHT22;40963;52.168;21.296;2022-08-23T05:10:20;18.80;99.90
55064;DHT22;40963;52.168;21.296;2022-08-23T05:12:46;18.90;99.90
55064;DHT22;40963;52.168;21.296;2022-08-23T05:15:12;18.90;99.90
55064;DHT22;40963;52.168;21.296;2022-08-23T05:17:38;18.90;99.90
55064;DHT22;40963;52.168;21.296;2022-08-23T05:20:07;19.00;99.90
55064;DHT22;40963;52.168;21.296;2022-08-23T05:22:37;19.00;99.90
55064;DHT22;40963;52.168;21.296;2022-08-23T05:25:04;19.00;99.90
55064;DHT22;40963;52.168;21.296;2022-08-23T05:27:30;19.10;99.90
55064;DHT22;40963;52.168;21.296;2022-08-23T05:29:56;19.10;99.90
55064;DHT22;40963;52.168;21.296;2022-08-23T05:32:22;19.10;99.90
55064;DHT22;40963;52.168;21.296;2022-08-23T05:34:48;19.20;99.90
55064;DHT22;40963;52.168;21.296;2022-08-23T05:37:14;19.20;99.90
55064;DHT22;40963;52.168;21.296;2022-08-23T05:39:40;19.20;99.90
55064;DHT22;40963;52.168;21.296;2022-08-23T05:42:08;19.30;99.90
55064;DHT22;40963;52.168;21.296;2022-08-23T05:44:33;19.30;99.90
55064;DHT22;40963;52.168;21.296;2022-08-23T05:46:59;19.40;99.90
55064;DHT22;40963;52.168;21.296;2022-08-23T05:49:25;19.40;99.90
55064;DHT22;40963;52.168;21.296;2022-08-23T05:51:50;19.50;99.90
55064;DHT22;40963;52.168;21.296;2022-08-23T05:54:16;19.50;99.90
55064;DHT22;40963;52.168;21.296;2022-08-23T05:56:42;19.60;99.90
55064;DHT22;40963;52.168;21.296;2022-08-23T05:59:11;19.60;99.90
55064;DHT22;40963;52.168;21.296;2022-08-23T06:01:38;19.70;99.90
55064;DHT22;40963;52.168;21.296;2022-08-23T06:04:08;19.70;99.90
55064;DHT22;40963;52.168;21.296;2022-08-23T06:06:35;19.80;99.90
55064;DHT22;40963;52.168;21.296;2022-08-23T06:09:02;19.90;99.90
55064;DHT22;40963;52.168;21.296;2022-08-23T06:11:28;19.90;99.90
55064;DHT22;40963;52.168;21.296;2022-08-23T06:14:00;20.00;99.90
55064;DHT22;40963;52.168;21.296;2022-08-23T06:16:29;20.10;99.90
55064;DHT22;40963;52.168;21.296;2022-08-23T06:18:55;20.20;99.90
55064;DHT22;40963;52.168;21.296;2022-08-23T06:21:23;20.20;99.90
55064;DHT22;40963;52.168;21.296;2022-08-23T06:23:49;20.30;99.90
55064;DHT22;40963;52.168;21.296;2022-08-23T06:26:21;20.40;99.90
55064;DHT22;40963;52.168;21.296;2022-08-23T06:28:49;20.40;99.90
55064;DHT22;40963;52.168;21.296;2022-08-23T06:31:15;20.50;99.90
55064;DHT22;40963;52.168;21.296;2022-08-23T06:34:02;20.60;99.90
55064;DHT22;40963;52.168;21.296;2022-08-23T06:36:27;20.70;99.90
55064;DHT22;40963;52.168;21.296;2022-08-23T06:38:53;20.80;99.90
55064;DHT22;40963;52.168;21.296;2022-08-23T06:41:19;20.90;99.90
55064;DHT22;40963;52.168;21.296;2022-08-23T06:43:45;21.00;99.90
55064;DHT22;40963;52.168;21.296;2022-08-23T06:46:13;21.10;99.90
55064;DHT22;40963;52.168;21.296;2022-08-23T06:48:42;21.30;99.90
55064;DHT22;40963;52.168;21.296;2022-08-23T06:53:55;21.50;99.90
55064;DHT22;40963;52.168;21.296;2022-08-23T06:56:22;21.60;99.90
55064;DHT22;40963;52.168;21.296;2022-08-23T06:58:49;21.70;99.90
55064;DHT22;40963;52.168;21.296;2022-08-23T07:01:20;21.80;99.90
55064;DHT22;40963;52.168;21.296;2022-08-23T07:03:54;22.00;99.90
55064;DHT22;40963;52.168;21.296;2022-08-23T07:06:25;22.10;99.90
55064;DHT22;40963;52.168;21.296;2022-08-23T07:08:51;22.30;99.90
55064;DHT22;40963;52.168;21.296;2022-08-23T07:11:18;22.40;99.90
55064;DHT22;40963;52.168;21.296;2022-08-23T07:13:44;22.50;99.90
55064;DHT22;40963;52.168;21.296;2022-08-23T07:16:10;22.60;99.90
55064;DHT22;40963;52.168;21.296;2022-08-23T07:18:36;22.80;99.90
55064;DHT22;40963;52.168;21.296;2022-08-23T07:21:04;22.90;99.90
55064;DHT22;40963;52.168;21.296;2022-08-23T07:23:31;23.00;99.90
55064;DHT22;40963;52.168;21.296;2022-08-23T07:26:02;23.20;99.90
55064;DHT22;40963;52.168;21.296;2022-08-23T07:28:30;23.40;99.90
55064;DHT22;40963;52.168;21.296;2022-08-23T07:31:10;23.50;99.90
55064;DHT22;40963;52.168;21.296;2022-08-23T07:33:37;23.60;99.90
55064;DHT22;40963;52.168;21.296;2022-08-23T07:36:04;23.80;99.90
55064;DHT22;40963;52.168;21.296;2022-08-23T07:38:30;24.00;99.90
55064;DHT22;40963;52.168;21.296;2022-08-23T07:40:55;24.10;99.90
55064;DHT22;40963;52.168;21.296;2022-08-23T07:43:22;24.20;99.90
55064;DHT22;40963;52.168;21.296;2022-08-23T07:45:48;24.40;99.90
55064;DHT22;40963;52.168;21.296;2022-08-23T07:48:14;24.60;99.90
55064;DHT22;40963;52.168;21.296;2022-08-23T07:50:40;24.70;99.90
55064;DHT22;40963;52.168;21.296;2022-08-23T07:53:08;24.80;99.90
55064;DHT22;40963;52.168;21.296;2022-08-23T07:55:34;25.00;99.90
55064;DHT22;40963;52.168;21.296;2022-08-23T07:58:03;25.20;99.90
55064;DHT22;40963;52.168;21.296;2022-08-23T08:00:29;25.30;99.90
55064;DHT22;40963;52.168;21.296;2022-08-23T08:02:54;25.30;99.90
55064;DHT22;40963;52.168;21.296;2022-08-23T08:05:20;25.40;99.90
55064;DHT22;40963;52.168;21.296;2022-08-23T08:07:46;25.40;99.90
55064;DHT22;40963;52.168;21.296;2022-08-23T08:10:11;25.40;99.90
55064;DHT22;40963;52.168;21.296;2022-08-23T08:12:37;25.40;99.90
55064;DHT22;40963;52.168;21.296;2022-08-23T08:15:03;25.40;99.90
55064;DHT22;40963;52.168;21.296;2022-08-23T08:17:29;25.40;99.90
55064;DHT22;40963;52.168;21.296;2022-08-23T08:19:55;25.50;99.90
55064;DHT22;40963;52.168;21.296;2022-08-23T08:22:20;25.50;99.90
55064;DHT22;40963;52.168;21.296;2022-08-23T08:24:46;25.50;99.90
55064;DHT22;40963;52.168;21.296;2022-08-23T08:27:12;25.60;99.90
55064;DHT22;40963;52.168;21.296;2022-08-23T08:29:37;25.60;99.90
55064;DHT22;40963;52.168;21.296;2022-08-23T08:32:03;25.60;99.90
55064;DHT22;40963;52.168;21.296;2022-08-23T08:34:29;25.70;99.90
55064;DHT22;40963;52.168;21.296;2022-08-23T08:36:56;25.70;99.90
55064;DHT22;40963;52.168;21.296;2022-08-23T08:39:25;25.80;99.90
55064;DHT22;40963;52.168;21.296;2022-08-23T08:44:39;25.90;99.90
55064;DHT22;40963;52.168;21.296;2022-08-23T08:47:26;25.90;99.90
55064;DHT22;40963;52.168;21.296;2022-08-23T08:55:44;25.90;99.90
55064;DHT22;40963;52.168;21.296;2022-08-23T08:58:20;25.90;99.90
55064;DHT22;40963;52.168;21.296;2022-08-23T09:00:47;26.00;99.90
55064;DHT22;40963;52.168;21.296;2022-08-23T09:03:15;26.00;99.90
55064;DHT22;40963;52.168;21.296;2022-08-23T09:06:02;26.10;99.90
55064;DHT22;40963;52.168;21.296;2022-08-23T09:08:54;26.20;99.90
55064;DHT22;40963;52.168;21.296;2022-08-23T09:11:43;26.30;99.90
55064;DHT22;40963;52.168;21.296;2022-08-23T09:20:03;26.40;98.90
55064;DHT22;40963;52.168;21.296;2022-08-23T09:22:42;26.60;98.60
55064;DHT22;40963;52.168;21.296;2022-08-23T09:25:10;26.70;98.10
55064;DHT22;40963;52.168;21.296;2022-08-23T09:27:40;26.70;97.20
55064;DHT22;40963;52.168;21.296;2022-08-23T09:30:10;26.70;97.00
55064;DHT22;40963;52.168;21.296;2022-08-23T09:32:38;26.80;95.80
55064;DHT22;40963;52.168;21.296;2022-08-23T09:35:22;26.90;95.30
55064;DHT22;40963;52.168;21.296;2022-08-23T09:37:57;27.00;95.10
55064;DHT22;40963;52.168;21.296;2022-08-23T09:40:42;27.10;94.90
55064;DHT22;40963;52.168;21.296;2022-08-23T09:43:13;27.20;93.60
55064;DHT22;40963;52.168;21.296;2022-08-23T09:45:55;27.40;92.80
55064;DHT22;40963;52.168;21.296;2022-08-23T09:48:42;27.60;92.40
55064;DHT22;40963;52.168;21.296;2022-08-23T09:54:12;28.00;91.20
55064;DHT22;40963;52.168;21.296;2022-08-23T09:56:43;28.00;90.90
55064;DHT22;40963;52.168;21.296;2022-08-23T10:01:56;28.20;88.90
55064;DHT22;40963;52.168;21.296;2022-08-23T10:04:29;28.20;86.70
55064;DHT22;40963;52.168;21.296;2022-08-23T10:07:23;28.20;86.40
55064;DHT22;40963;52.168;21.296;2022-08-23T10:09:51;28.30;85.20
55064;DHT22;40963;52.168;21.296;2022-08-23T10:12:16;28.40;83.40
55064;DHT22;40963;52.168;21.296;2022-08-23T10:14:42;28.60;82.20
55064;DHT22;40963;52.168;21.296;2022-08-23T10:27:20;29.00;75.50
55064;DHT22;40963;52.168;21.296;2022-08-23T10:30:12;29.00;75.60
55064;DHT22;40963;52.168;21.296;2022-08-23T10:33:01;29.00;77.00
55064;DHT22;40963;52.168;21.296;2022-08-23T10:35:31;29.00;77.40
55064;DHT22;40963;52.168;21.296;2022-08-23T10:41:20;29.10;74.90
55064;DHT22;40963;52.168;21.296;2022-08-23T10:46:28;29.20;73.40
55064;DHT22;40963;52.168;21.296;2022-08-23T10:48:57;29.10;73.90
55064;DHT22;40963;52.168;21.296;2022-08-23T10:51:35;29.20;74.20
55064;DHT22;40963;52.168;21.296;2022-08-23T10:54:28;29.30;73.80
55064;DHT22;40963;52.168;21.296;2022-08-23T10:57:01;29.30;73.60
55064;DHT22;40963;52.168;21.296;2022-08-23T10:59:29;29.40;73.70
55064;DHT22;40963;52.168;21.296;2022-08-23T11:02:28;29.50;73.20
55064;DHT22;40963;52.168;21.296;2022-08-23T11:05:21;29.50;72.60
55064;DHT22;40963;52.168;21.296;2022-08-23T11:08:32;29.60;71.90
55064;DHT22;40963;52.168;21.296;2022-08-23T11:10:59;29.60;71.20
55064;DHT22;40963;52.168;21.296;2022-08-23T11:13:27;29.50;71.10
55064;DHT22;40963;52.168;21.296;2022-08-23T11:15:54;29.60;71.30
55064;DHT22;40963;52.168;21.296;2022-08-23T11:31:44;29.50;71.00
55064;DHT22;40963;52.168;21.296;2022-08-23T11:34:23;29.50;71.70
55064;DHT22;40963;52.168;21.296;2022-08-23T11:42:48;29.60;71.90
55064;DHT22;40963;52.168;21.296;2022-08-23T11:45:22;29.60;70.90
55064;DHT22;40963;52.168;21.296;2022-08-23T11:48:33;29.60;70.40
55064;DHT22;40963;52.168;21.296;2022-08-23T11:51:23;29.70;69.90
55064;DHT22;40963;52.168;21.296;2022-08-23T11:53:57;29.70;68.90
55064;DHT22;40963;52.168;21.296;2022-08-23T11:59:18;29.80;68.30
55064;DHT22;40963;52.168;21.296;2022-08-23T12:01:46;29.80;67.30
55064;DHT22;40963;52.168;21.296;2022-08-23T12:04:36;29.80;66.70
55064;DHT22;40963;52.168;21.296;2022-08-23T12:07:04;29.90;66.70
55064;DHT22;40963;52.168;21.296;2022-08-23T12:12:27;29.80;67.20
55064;DHT22;40963;52.168;21.296;2022-08-23T12:14:57;29.70;66.60
55064;DHT22;40963;52.168;21.296;2022-08-23T12:22:59;29.70;66.20
55064;DHT22;40963;52.168;21.296;2022-08-23T12:25:27;29.80;65.40
55064;DHT22;40963;52.168;21.296;2022-08-23T12:30:55;30.00;64.70
55064;DHT22;40963;52.168;21.296;2022-08-23T12:41:28;30.20;63.70
55064;DHT22;40963;52.168;21.296;2022-08-23T12:44:07;30.30;63.60
55064;DHT22;40963;52.168;21.296;2022-08-23T12:46:37;30.40;63.50
55064;DHT22;40963;52.168;21.296;2022-08-23T12:49:06;30.30;62.60
55064;DHT22;40963;52.168;21.296;2022-08-23T12:51:47;30.30;62.60
55064;DHT22;40963;52.168;21.296;2022-08-23T12:54:16;30.10;62.30
55064;DHT22;40963;52.168;21.296;2022-08-23T12:56:48;30.10;62.10
55064;DHT22;40963;52.168;21.296;2022-08-23T12:59:37;30.10;61.90
55064;DHT22;40963;52.168;21.296;2022-08-23T13:02:09;30.20;62.30
55064;DHT22;40963;52.168;21.296;2022-08-23T13:04:37;30.20;62.20
55064;DHT22;40963;52.168;21.296;2022-08-23T13:07:07;30.10;61.70
55064;DHT22;40963;52.168;21.296;2022-08-23T13:09:37;30.10;61.90
55064;DHT22;40963;52.168;21.296;2022-08-23T13:12:05;30.00;61.80
55064;DHT22;40963;52.168;21.296;2022-08-23T13:14:35;30.00;61.60
55064;DHT22;40963;52.168;21.296;2022-08-23T13:19:40;30.10;61.50
55064;DHT22;40963;52.168;21.296;2022-08-23T13:27:37;30.30;61.60
55064;DHT22;40963;52.168;21.296;2022-08-23T13:40:55;29.80;62.90
55064;DHT22;40963;52.168;21.296;2022-08-23T13:48:36;29.50;63.70
55064;DHT22;40963;52.168;21.296;2022-08-23T13:51:40;29.50;64.20
55064;DHT22;40963;52.168;21.296;2022-08-23T13:54:09;29.60;64.20
55064;DHT22;40963;52.168;21.296;2022-08-23T13:56:53;29.60;63.40
55064;DHT22;40963;52.168;21.296;2022-08-23T13:59:31;29.70;62.40
55064;DHT22;40963;52.168;21.296;2022-08-23T14:01:59;29.70;61.80
55064;DHT22;40963;52.168;21.296;2022-08-23T14:04:25;29.70;61.70
55064;DHT22;40963;52.168;21.296;2022-08-23T14:06:51;29.80;61.60
55064;DHT22;40963;52.168;21.296;2022-08-23T14:09:17;29.80;61.40
55064;DHT22;40963;52.168;21.296;2022-08-23T14:11:43;29.80;61.80
55064;DHT22;40963;52.168;21.296;2022-08-23T14:14:11;29.80;61.50
55064;DHT22;40963;52.168;21.296;2022-08-23T14:16:38;29.90;61.00
55064;DHT22;40963;52.168;21.296;2022-08-23T14:19:08;29.90;60.60
55064;DHT22;40963;52.168;21.296;2022-08-23T14:21:35;29.90;60.60
55064;DHT22;40963;52.168;21.296;2022-08-23T14:24:00;29.90;60.60
55064;DHT22;40963;52.168;21.296;2022-08-23T14:26:26;29.80;60.60
55064;DHT22;40963;52.168;21.296;2022-08-23T14:28:52;29.80;60.60
55064;DHT22;40963;52.168;21.296;2022-08-23T14:31:18;29.70;60.10
55064;DHT22;40963;52.168;21.296;2022-08-23T14:33:45;29.60;60.30
55064;DHT22;40963;52.168;21.296;2022-08-23T14:36:11;29.60;60.50
55064;DHT22;40963;52.168;21.296;2022-08-23T14:38:37;29.60;60.50
55064;DHT22;40963;52.168;21.296;2022-08-23T14:41:06;29.60;60.10
55064;DHT22;40963;52.168;21.296;2022-08-23T14:43:33;29.50;59.90
55064;DHT22;40963;52.168;21.296;2022-08-23T14:45:59;29.50;60.10
55064;DHT22;40963;52.168;21.296;2022-08-23T14:48:25;29.50;60.20
55064;DHT22;40963;52.168;21.296;2022-08-23T14:50:51;29.50;59.80
55064;DHT22;40963;52.168;21.296;2022-08-23T14:53:21;29.40;59.40
55064;DHT22;40963;52.168;21.296;2022-08-23T14:55:47;29.30;59.20
55064;DHT22;40963;52.168;21.296;2022-08-23T14:58:14;29.30;58.90
55064;DHT22;40963;52.168;21.296;2022-08-23T15:00:42;29.20;58.80
55064;DHT22;40963;52.168;21.296;2022-08-23T15:03:09;29.20;59.00
55064;DHT22;40963;52.168;21.296;2022-08-23T15:05:36;29.10;59.10
55064;DHT22;40963;52.168;21.296;2022-08-23T15:08:01;29.00;59.60
55064;DHT22;40963;52.168;21.296;2022-08-23T15:10:27;28.90;60.20
55064;DHT22;40963;52.168;21.296;2022-08-23T15:12:53;28.80;60.10
55064;DHT22;40963;52.168;21.296;2022-08-23T15:15:19;28.70;60.60
55064;DHT22;40963;52.168;21.296;2022-08-23T15:17:59;28.70;61.10
55064;DHT22;40963;52.168;21.296;2022-08-23T15:20:33;28.50;61.80
55064;DHT22;40963;52.168;21.296;2022-08-23T15:23:00;28.40;62.30
55064;DHT22;40963;52.168;21.296;2022-08-23T15:25:31;28.40;63.20
55064;DHT22;40963;52.168;21.296;2022-08-23T15:27:58;28.30;63.10
55064;DHT22;40963;52.168;21.296;2022-08-23T15:30:27;28.20;63.50
55064;DHT22;40963;52.168;21.296;2022-08-23T15:32:52;28.20;64.70
55064;DHT22;40963;52.168;21.296;2022-08-23T15:35:19;28.10;65.90
55064;DHT22;40963;52.168;21.296;2022-08-23T15:37:45;28.00;67.20
55064;DHT22;40963;52.168;21.296;2022-08-23T15:40:11;28.00;68.80
55064;DHT22;40963;52.168;21.296;2022-08-23T15:42:37;27.80;69.30
55064;DHT22;40963;52.168;21.296;2022-08-23T15:45:03;27.60;69.50
55064;DHT22;40963;52.168;21.296;2022-08-23T15:47:36;27.40;69.50
55064;DHT22;40963;52.168;21.296;2022-08-23T15:50:06;27.30;70.00
55064;DHT22;40963;52.168;21.296;2022-08-23T15:52:32;27.20;70.60
55064;DHT22;40963;52.168;21.296;2022-08-23T15:54:58;27.10;71.40
55064;DHT22;40963;52.168;21.296;2022-08-23T15:57:26;27.00;72.10
55064;DHT22;40963;52.168;21.296;2022-08-23T15:59:53;26.90;72.80
55064;DHT22;40963;52.168;21.296;2022-08-23T16:02:19;26.80;73.40
55064;DHT22;40963;52.168;21.296;2022-08-23T16:04:44;26.70;73.60
55064;DHT22;40963;52.168;21.296;2022-08-23T16:07:14;26.60;73.70
55064;DHT22;40963;52.168;21.296;2022-08-23T16:09:40;26.60;74.60
55064;DHT22;40963;52.168;21.296;2022-08-23T16:12:06;26.50;75.20
55064;DHT22;40963;52.168;21.296;2022-08-23T16:14:33;26.40;75.60
55064;DHT22;40963;52.168;21.296;2022-08-23T16:16:59;26.40;75.90
55064;DHT22;40963;52.168;21.296;2022-08-23T16:19:26;26.30;76.30
55064;DHT22;40963;52.168;21.296;2022-08-23T16:21:52;26.30;77.40
55064;DHT22;40963;52.168;21.296;2022-08-23T16:24:19;26.20;79.20
55064;DHT22;40963;52.168;21.296;2022-08-23T16:26:45;26.20;80.30
55064;DHT22;40963;52.168;21.296;2022-08-23T16:29:14;26.10;81.00
55064;DHT22;40963;52.168;21.296;2022-08-23T16:31:41;26.00;82.40
55064;DHT22;40963;52.168;21.296;2022-08-23T16:34:09;25.90;82.30
55064;DHT22;40963;52.168;21.296;2022-08-23T16:36:37;25.90;83.20
55064;DHT22;40963;52.168;21.296;2022-08-23T16:39:04;25.80;84.30
55064;DHT22;40963;52.168;21.296;2022-08-23T16:41:30;25.70;85.50
55064;DHT22;40963;52.168;21.296;2022-08-23T16:43:56;25.60;86.40
55064;DHT22;40963;52.168;21.296;2022-08-23T16:46:22;25.50;87.10
55064;DHT22;40963;52.168;21.296;2022-08-23T16:48:48;25.50;87.90
55064;DHT22;40963;52.168;21.296;2022-08-23T16:51:14;25.40;89.00
55064;DHT22;40963;52.168;21.296;2022-08-23T16:53:39;25.30;90.00
55064;DHT22;40963;52.168;21.296;2022-08-23T16:56:06;25.30;90.30
55064;DHT22;40963;52.168;21.296;2022-08-23T16:58:32;25.30;90.90
55064;DHT22;40963;52.168;21.296;2022-08-23T17:00:58;25.20;91.00
55064;DHT22;40963;52.168;21.296;2022-08-23T17:03:24;25.10;91.00
55064;DHT22;40963;52.168;21.296;2022-08-23T17:05:50;25.10;91.20
55064;DHT22;40963;52.168;21.296;2022-08-23T17:08:16;25.00;91.60
55064;DHT22;40963;52.168;21.296;2022-08-23T17:10:42;25.00;91.80
55064;DHT22;40963;52.168;21.296;2022-08-23T17:13:08;24.90;92.10
55064;DHT22;40963;52.168;21.296;2022-08-23T17:15:36;24.90;92.60
55064;DHT22;40963;52.168;21.296;2022-08-23T17:18:03;24.80;93.00
55064;DHT22;40963;52.168;21.296;2022-08-23T17:20:31;24.70;93.20
55064;DHT22;40963;52.168;21.296;2022-08-23T17:22:57;24.70;93.50